sensor_id;sensor_type;location;lat;lon;timestamp;P1;durP1;ratioP1;P2;durP2;ratioP2
51214;SDS011;63849;47.546;19.254;2024-03-02T00:00:19;46.70;;;32.20;;
51214;SDS011;63849;47.546;19.254;2024-03-02T00:02:46;41.67;;;32.47;;
51214;SDS011;63849;47.546;19.254;2024-03-02T00:05:18;46.75;;;31.83;;
51214;SDS011;63849;47.546;19.254;2024-03-02T00:07:46;46.17;;;30.85;;
51214;SDS011;63849;47.546;19.254;2024-03-02T00:10:19;41.72;;;30.83;;
51214;SDS011;63849;47.546;19.254;2024-03-02T00:12:48;47.05;;;31.83;;
51214;SDS011;63849;47.546;19.254;2024-03-02T00:15:28;45.38;;;31.90;;
51214;SDS011;63849;47.546;19.254;2024-03-02T00:18:01;42.38;;;30.38;;
51214;SDS011;63849;47.546;19.254;2024-03-02T00:20:27;42.22;;;30.35;;
51214;SDS011;63849;47.546;19.254;2024-03-02T00:23:00;47.75;;;30.88;;
51214;SDS011;63849;47.546;19.254;2024-03-02T00:25:39;41.65;;;30.35;;
51214;SDS011;63849;47.546;19.254;2024-03-02T00:28:17;40.92;;;30.05;;
51214;SDS011;63849;47.546;19.254;2024-03-02T00:30:51;46.00;;;31.50;;
51214;SDS011;63849;47.546;19.254;2024-03-02T00:33:37;41.75;;;29.50;;
51214;SDS011;63849;47.546;19.254;2024-03-02T00:36:03;41.22;;;30.65;;
51214;SDS011;63849;47.546;19.254;2024-03-02T00:38:32;41.58;;;29.50;;
51214;SDS011;63849;47.546;19.254;2024-03-02T00:41:00;43.47;;;31.83;;
51214;SDS011;63849;47.546;19.254;2024-03-02T00:46:09;40.33;;;29.33;;
51214;SDS011;63849;47.546;19.254;2024-03-02T00:48:36;42.80;;;28.98;;
51214;SDS011;63849;47.546;19.254;2024-03-02T00:51:03;36.60;;;28.50;;
51214;SDS011;63849;47.546;19.254;2024-03-02T00:53:32;40.63;;;28.25;;
51214;SDS011;63849;47.546;19.254;2024-03-02T00:55:58;37.95;;;28.77;;
51214;SDS011;63849;47.546;19.254;2024-03-02T00:58:27;39.70;;;29.65;;
51214;SDS011;63849;47.546;19.254;2024-03-02T01:00:53;39.28;;;28.83;;
51214;SDS011;63849;47.546;19.254;2024-03-02T01:03:18;42.47;;;29.45;;
51214;SDS011;63849;47.546;19.254;2024-03-02T01:05:44;37.75;;;27.25;;
51214;SDS011;63849;47.546;19.254;2024-03-02T01:08:10;40.67;;;30.05;;
51214;SDS011;63849;47.546;19.254;2024-03-02T01:10:36;36.35;;;28.23;;
51214;SDS011;63849;47.546;19.254;2024-03-02T01:13:02;40.13;;;28.15;;
51214;SDS011;63849;47.546;19.254;2024-03-02T01:15:27;41.08;;;28.45;;
51214;SDS011;63849;47.546;19.254;2024-03-02T01:17:53;40.30;;;27.67;;
51214;SDS011;63849;47.546;19.254;2024-03-02T01:20:19;38.33;;;28.13;;
51214;SDS011;63849;47.546;19.254;2024-03-02T01:22:45;40.38;;;28.15;;
51214;SDS011;63849;47.546;19.254;2024-03-02T01:25:10;41.30;;;28.63;;
51214;SDS011;63849;47.546;19.254;2024-03-02T01:27:36;42.08;;;30.13;;
51214;SDS011;63849;47.546;19.254;2024-03-02T01:30:01;39.85;;;29.35;;
51214;SDS011;63849;47.546;19.254;2024-03-02T01:32:27;42.40;;;30.30;;
51214;SDS011;63849;47.546;19.254;2024-03-02T01:34:53;40.17;;;29.58;;
51214;SDS011;63849;47.546;19.254;2024-03-02T01:37:18;47.72;;;32.88;;
51214;SDS011;63849;47.546;19.254;2024-03-02T01:39:44;47.28;;;32.80;;
51214;SDS011;63849;47.546;19.254;2024-03-02T01:42:10;42.35;;;29.17;;
51214;SDS011;63849;47.546;19.254;2024-03-02T01:44:39;41.65;;;28.00;;
51214;SDS011;63849;47.546;19.254;2024-03-02T01:47:05;42.20;;;28.42;;
51214;SDS011;63849;47.546;19.254;2024-03-02T01:49:31;39.88;;;27.48;;
51214;SDS011;63849;47.546;19.254;2024-03-02T01:51:59;35.60;;;27.10;;
51214;SDS011;63849;47.546;19.254;2024-03-02T01:54:24;44.10;;;29.00;;
51214;SDS011;63849;47.546;19.254;2024-03-02T01:56:50;39.75;;;27.35;;
51214;SDS011;63849;47.546;19.254;2024-03-02T01:59:16;44.15;;;31.52;;
51214;SDS011;63849;47.546;19.254;2024-03-02T02:01:42;48.75;;;33.70;;
51214;SDS011;63849;47.546;19.254;2024-03-02T02:04:07;47.88;;;32.05;;
51214;SDS011;63849;47.546;19.254;2024-03-02T02:06:33;41.28;;;28.67;;
51214;SDS011;63849;47.546;19.254;2024-03-02T02:08:59;40.97;;;27.30;;
51214;SDS011;63849;47.546;19.254;2024-03-02T02:11:25;35.78;;;25.42;;
51214;SDS011;63849;47.546;19.254;2024-03-02T02:13:51;37.00;;;25.90;;
51214;SDS011;63849;47.546;19.254;2024-03-02T02:16:16;36.63;;;27.35;;
51214;SDS011;63849;47.546;19.254;2024-03-02T02:18:42;34.25;;;24.65;;
51214;SDS011;63849;47.546;19.254;2024-03-02T02:21:08;33.83;;;25.35;;
51214;SDS011;63849;47.546;19.254;2024-03-02T02:23:33;37.67;;;26.17;;
51214;SDS011;63849;47.546;19.254;2024-03-02T02:25:59;38.30;;;26.20;;
51214;SDS011;63849;47.546;19.254;2024-03-02T02:28:25;35.35;;;26.20;;
51214;SDS011;63849;47.546;19.254;2024-03-02T02:30:50;37.50;;;26.27;;
51214;SDS011;63849;47.546;19.254;2024-03-02T02:33:16;35.42;;;25.95;;
51214;SDS011;63849;47.546;19.254;2024-03-02T02:35:41;33.53;;;25.70;;
51214;SDS011;63849;47.546;19.254;2024-03-02T02:38:07;39.22;;;27.58;;
51214;SDS011;63849;47.546;19.254;2024-03-02T02:40:33;37.85;;;28.10;;
51214;SDS011;63849;47.546;19.254;2024-03-02T02:42:58;36.75;;;26.73;;
51214;SDS011;63849;47.546;19.254;2024-03-02T02:45:24;38.47;;;27.08;;
51214;SDS011;63849;47.546;19.254;2024-03-02T02:47:50;34.92;;;26.40;;
51214;SDS011;63849;47.546;19.254;2024-03-02T02:50:16;36.55;;;26.77;;
51214;SDS011;63849;47.546;19.254;2024-03-02T02:52:42;35.67;;;26.75;;
51214;SDS011;63849;47.546;19.254;2024-03-02T02:55:09;36.40;;;27.50;;
51214;SDS011;63849;47.546;19.254;2024-03-02T02:57:36;37.03;;;27.80;;
51214;SDS011;63849;47.546;19.254;2024-03-02T03:00:07;39.75;;;27.00;;
51214;SDS011;63849;47.546;19.254;2024-03-02T03:02:35;39.88;;;27.00;;
51214;SDS011;63849;47.546;19.254;2024-03-02T03:05:06;38.83;;;28.38;;
51214;SDS011;63849;47.546;19.254;2024-03-02T03:07:33;42.00;;;28.08;;
51214;SDS011;63849;47.546;19.254;2024-03-02T03:10:02;38.72;;;28.60;;
51214;SDS011;63849;47.546;19.254;2024-03-02T03:12:29;41.97;;;28.27;;
51214;SDS011;63849;47.546;19.254;2024-03-02T03:14:58;38.75;;;28.23;;
51214;SDS011;63849;47.546;19.254;2024-03-02T03:17:25;39.47;;;28.33;;
51214;SDS011;63849;47.546;19.254;2024-03-02T03:19:51;38.83;;;28.38;;
51214;SDS011;63849;47.546;19.254;2024-03-02T03:22:16;41.25;;;29.35;;
51214;SDS011;63849;47.546;19.254;2024-03-02T03:24:42;36.88;;;27.38;;
51214;SDS011;63849;47.546;19.254;2024-03-02T03:27:08;39.95;;;27.67;;
51214;SDS011;63849;47.546;19.254;2024-03-02T03:29:35;39.22;;;29.17;;
51214;SDS011;63849;47.546;19.254;2024-03-02T03:32:01;36.67;;;27.90;;
51214;SDS011;63849;47.546;19.254;2024-03-02T03:34:27;41.95;;;28.85;;
51214;SDS011;63849;47.546;19.254;2024-03-02T03:36:54;37.38;;;28.20;;
51214;SDS011;63849;47.546;19.254;2024-03-02T03:39:19;38.90;;;27.73;;
51214;SDS011;63849;47.546;19.254;2024-03-02T03:41:45;41.22;;;28.38;;
51214;SDS011;63849;47.546;19.254;2024-03-02T03:44:11;40.05;;;29.38;;
51214;SDS011;63849;47.546;19.254;2024-03-02T03:46:37;38.90;;;27.92;;
51214;SDS011;63849;47.546;19.254;2024-03-02T03:49:03;39.65;;;28.48;;
51214;SDS011;63849;47.546;19.254;2024-03-02T03:51:29;40.00;;;28.02;;
51214;SDS011;63849;47.546;19.254;2024-03-02T03:53:55;40.72;;;29.88;;
51214;SDS011;63849;47.546;19.254;2024-03-02T03:56:21;40.45;;;28.95;;
51214;SDS011;63849;47.546;19.254;2024-03-02T03:58:46;37.90;;;28.63;;
51214;SDS011;63849;47.546;19.254;2024-03-02T04:01:12;43.85;;;30.95;;
51214;SDS011;63849;47.546;19.254;2024-03-02T04:03:38;42.03;;;30.20;;
51214;SDS011;63849;47.546;19.254;2024-03-02T04:06:03;40.25;;;29.30;;
51214;SDS011;63849;47.546;19.254;2024-03-02T04:08:29;42.88;;;30.02;;
51214;SDS011;63849;47.546;19.254;2024-03-02T04:10:55;41.50;;;29.48;;
51214;SDS011;63849;47.546;19.254;2024-03-02T04:13:21;42.83;;;31.23;;
51214;SDS011;63849;47.546;19.254;2024-03-02T04:15:46;42.38;;;32.38;;
51214;SDS011;63849;47.546;19.254;2024-03-02T04:18:12;39.58;;;30.48;;
51214;SDS011;63849;47.546;19.254;2024-03-02T04:20:38;45.15;;;32.38;;
51214;SDS011;63849;47.546;19.254;2024-03-02T04:23:03;48.63;;;32.53;;
51214;SDS011;63849;47.546;19.254;2024-03-02T04:25:29;46.35;;;32.15;;
51214;SDS011;63849;47.546;19.254;2024-03-02T04:27:55;42.55;;;32.47;;
51214;SDS011;63849;47.546;19.254;2024-03-02T04:30:20;44.13;;;31.85;;
51214;SDS011;63849;47.546;19.254;2024-03-02T04:32:46;45.28;;;32.35;;
51214;SDS011;63849;47.546;19.254;2024-03-02T04:35:12;48.58;;;33.72;;
51214;SDS011;63849;47.546;19.254;2024-03-02T04:37:38;44.75;;;33.28;;
51214;SDS011;63849;47.546;19.254;2024-03-02T04:40:04;50.85;;;33.15;;
51214;SDS011;63849;47.546;19.254;2024-03-02T04:42:33;43.35;;;31.30;;
51214;SDS011;63849;47.546;19.254;2024-03-02T04:44:59;43.63;;;33.20;;
51214;SDS011;63849;47.546;19.254;2024-03-02T04:47:25;45.55;;;32.47;;
51214;SDS011;63849;47.546;19.254;2024-03-02T04:49:50;46.00;;;33.65;;
51214;SDS011;63849;47.546;19.254;2024-03-02T04:52:16;42.50;;;31.83;;
51214;SDS011;63849;47.546;19.254;2024-03-02T04:54:42;45.95;;;33.55;;
51214;SDS011;63849;47.546;19.254;2024-03-02T04:57:26;45.17;;;32.90;;
51214;SDS011;63849;47.546;19.254;2024-03-02T04:59:52;45.92;;;34.05;;
51214;SDS011;63849;47.546;19.254;2024-03-02T05:02:18;47.88;;;34.00;;
51214;SDS011;63849;47.546;19.254;2024-03-02T05:04:43;47.05;;;33.85;;
51214;SDS011;63849;47.546;19.254;2024-03-02T05:07:09;48.42;;;34.00;;
51214;SDS011;63849;47.546;19.254;2024-03-02T05:09:35;45.85;;;33.30;;
51214;SDS011;63849;47.546;19.254;2024-03-02T05:12:01;45.65;;;32.70;;
51214;SDS011;63849;47.546;19.254;2024-03-02T05:14:45;48.30;;;33.42;;
51214;SDS011;63849;47.546;19.254;2024-03-02T05:17:11;44.15;;;33.70;;
51214;SDS011;63849;47.546;19.254;2024-03-02T05:19:37;47.38;;;33.47;;
51214;SDS011;63849;47.546;19.254;2024-03-02T05:22:03;47.85;;;34.72;;
51214;SDS011;63849;47.546;19.254;2024-03-02T05:24:29;47.33;;;34.50;;
51214;SDS011;63849;47.546;19.254;2024-03-02T05:26:55;47.75;;;34.60;;
51214;SDS011;63849;47.546;19.254;2024-03-02T05:29:21;47.22;;;34.53;;
51214;SDS011;63849;47.546;19.254;2024-03-02T05:31:47;45.60;;;33.50;;
51214;SDS011;63849;47.546;19.254;2024-03-02T05:34:13;46.88;;;33.85;;
51214;SDS011;63849;47.546;19.254;2024-03-02T05:36:38;46.78;;;34.10;;
51214;SDS011;63849;47.546;19.254;2024-03-02T05:39:05;48.55;;;33.83;;
51214;SDS011;63849;47.546;19.254;2024-03-02T05:41:34;47.55;;;33.03;;
51214;SDS011;63849;47.546;19.254;2024-03-02T05:43:59;46.70;;;33.90;;
51214;SDS011;63849;47.546;19.254;2024-03-02T05:46:26;45.92;;;33.30;;
51214;SDS011;63849;47.546;19.254;2024-03-02T05:48:51;45.38;;;33.03;;
51214;SDS011;63849;47.546;19.254;2024-03-02T05:51:17;46.00;;;33.22;;
51214;SDS011;63849;47.546;19.254;2024-03-02T05:53:43;47.30;;;33.05;;
51214;SDS011;63849;47.546;19.254;2024-03-02T05:56:09;47.47;;;33.78;;
51214;SDS011;63849;47.546;19.254;2024-03-02T05:58:34;47.33;;;34.25;;
51214;SDS011;63849;47.546;19.254;2024-03-02T06:01:19;42.90;;;31.95;;
51214;SDS011;63849;47.546;19.254;2024-03-02T06:03:44;46.97;;;36.45;;
51214;SDS011;63849;47.546;19.254;2024-03-02T06:06:10;46.78;;;33.15;;
51214;SDS011;63849;47.546;19.254;2024-03-02T06:08:36;47.50;;;34.83;;
51214;SDS011;63849;47.546;19.254;2024-03-02T06:11:01;43.28;;;32.30;;
51214;SDS011;63849;47.546;19.254;2024-03-02T06:13:27;49.70;;;34.17;;
51214;SDS011;63849;47.546;19.254;2024-03-02T06:15:53;45.25;;;35.00;;
51214;SDS011;63849;47.546;19.254;2024-03-02T06:18:18;47.28;;;33.75;;
51214;SDS011;63849;47.546;19.254;2024-03-02T06:20:44;53.03;;;36.10;;
51214;SDS011;63849;47.546;19.254;2024-03-02T06:23:10;50.10;;;35.83;;
51214;SDS011;63849;47.546;19.254;2024-03-02T06:25:35;46.55;;;35.15;;
51214;SDS011;63849;47.546;19.254;2024-03-02T06:28:01;49.80;;;35.53;;
51214;SDS011;63849;47.546;19.254;2024-03-02T06:30:27;44.65;;;33.83;;
51214;SDS011;63849;47.546;19.254;2024-03-02T06:32:53;42.45;;;32.47;;
51214;SDS011;63849;47.546;19.254;2024-03-02T06:35:18;46.25;;;33.75;;
51214;SDS011;63849;47.546;19.254;2024-03-02T06:37:44;46.55;;;34.72;;
51214;SDS011;63849;47.546;19.254;2024-03-02T06:40:09;47.08;;;34.78;;
51214;SDS011;63849;47.546;19.254;2024-03-02T06:42:35;53.08;;;36.90;;
51214;SDS011;63849;47.546;19.254;2024-03-02T06:45:01;51.65;;;35.58;;
51214;SDS011;63849;47.546;19.254;2024-03-02T06:47:28;48.15;;;35.08;;
51214;SDS011;63849;47.546;19.254;2024-03-02T06:49:53;47.80;;;35.33;;
51214;SDS011;63849;47.546;19.254;2024-03-02T06:52:19;48.35;;;35.28;;
51214;SDS011;63849;47.546;19.254;2024-03-02T06:54:46;47.80;;;36.08;;
51214;SDS011;63849;47.546;19.254;2024-03-02T06:57:11;46.45;;;37.05;;
51214;SDS011;63849;47.546;19.254;2024-03-02T06:59:37;48.17;;;36.47;;
51214;SDS011;63849;47.546;19.254;2024-03-02T07:02:03;49.33;;;35.60;;
51214;SDS011;63849;47.546;19.254;2024-03-02T07:04:28;52.70;;;34.92;;
51214;SDS011;63849;47.546;19.254;2024-03-02T07:06:54;49.42;;;36.85;;
51214;SDS011;63849;47.546;19.254;2024-03-02T07:09:20;44.25;;;33.55;;
51214;SDS011;63849;47.546;19.254;2024-03-02T07:11:48;50.13;;;36.47;;
51214;SDS011;63849;47.546;19.254;2024-03-02T07:14:14;46.80;;;34.85;;
51214;SDS011;63849;47.546;19.254;2024-03-02T07:16:40;43.13;;;33.55;;
51214;SDS011;63849;47.546;19.254;2024-03-02T07:19:06;44.85;;;32.75;;
51214;SDS011;63849;47.546;19.254;2024-03-02T07:21:31;47.00;;;34.97;;
51214;SDS011;63849;47.546;19.254;2024-03-02T07:24:00;49.75;;;35.22;;
51214;SDS011;63849;47.546;19.254;2024-03-02T07:26:29;45.38;;;33.40;;
51214;SDS011;63849;47.546;19.254;2024-03-02T07:28:59;46.97;;;33.63;;
51214;SDS011;63849;47.546;19.254;2024-03-02T07:31:24;49.25;;;35.58;;
51214;SDS011;63849;47.546;19.254;2024-03-02T07:33:50;44.53;;;33.60;;
51214;SDS011;63849;47.546;19.254;2024-03-02T07:36:16;45.28;;;35.30;;
51214;SDS011;63849;47.546;19.254;2024-03-02T07:38:42;43.25;;;34.92;;
51214;SDS011;63849;47.546;19.254;2024-03-02T07:41:09;46.10;;;33.75;;
51214;SDS011;63849;47.546;19.254;2024-03-02T07:43:36;46.70;;;35.60;;
51214;SDS011;63849;47.546;19.254;2024-03-02T07:46:01;45.40;;;35.63;;
51214;SDS011;63849;47.546;19.254;2024-03-02T07:48:28;60.45;;;48.47;;
51214;SDS011;63849;47.546;19.254;2024-03-02T07:50:54;52.28;;;39.22;;
51214;SDS011;63849;47.546;19.254;2024-03-02T07:53:19;53.47;;;40.83;;
51214;SDS011;63849;47.546;19.254;2024-03-02T07:55:45;51.22;;;40.05;;
51214;SDS011;63849;47.546;19.254;2024-03-02T07:58:10;54.47;;;40.38;;
51214;SDS011;63849;47.546;19.254;2024-03-02T08:00:38;54.13;;;38.67;;
51214;SDS011;63849;47.546;19.254;2024-03-02T08:03:05;60.35;;;44.88;;
51214;SDS011;63849;47.546;19.254;2024-03-02T08:05:31;59.42;;;45.38;;
51214;SDS011;63849;47.546;19.254;2024-03-02T08:07:57;55.03;;;43.60;;
51214;SDS011;63849;47.546;19.254;2024-03-02T08:10:23;51.25;;;39.22;;
51214;SDS011;63849;47.546;19.254;2024-03-02T08:12:48;51.65;;;37.78;;
51214;SDS011;63849;47.546;19.254;2024-03-02T08:15:14;52.35;;;38.60;;
51214;SDS011;63849;47.546;19.254;2024-03-02T08:17:40;48.58;;;37.75;;
51214;SDS011;63849;47.546;19.254;2024-03-02T08:20:13;53.00;;;38.70;;
51214;SDS011;63849;47.546;19.254;2024-03-02T08:22:39;49.75;;;37.90;;
51214;SDS011;63849;47.546;19.254;2024-03-02T08:25:05;53.70;;;39.63;;
51214;SDS011;63849;47.546;19.254;2024-03-02T08:27:31;46.08;;;35.60;;
51214;SDS011;63849;47.546;19.254;2024-03-02T08:29:58;50.58;;;37.47;;
51214;SDS011;63849;47.546;19.254;2024-03-02T08:32:23;47.50;;;35.72;;
51214;SDS011;63849;47.546;19.254;2024-03-02T08:34:49;48.22;;;36.58;;
51214;SDS011;63849;47.546;19.254;2024-03-02T08:37:14;49.03;;;37.45;;
51214;SDS011;63849;47.546;19.254;2024-03-02T08:39:40;50.33;;;37.92;;
51214;SDS011;63849;47.546;19.254;2024-03-02T08:42:06;45.22;;;35.13;;
51214;SDS011;63849;47.546;19.254;2024-03-02T08:44:32;46.00;;;35.95;;
51214;SDS011;63849;47.546;19.254;2024-03-02T08:46:58;45.42;;;34.60;;
51214;SDS011;63849;47.546;19.254;2024-03-02T08:49:24;44.28;;;33.78;;
51214;SDS011;63849;47.546;19.254;2024-03-02T08:51:50;40.42;;;33.83;;
51214;SDS011;63849;47.546;19.254;2024-03-02T08:54:20;42.88;;;32.72;;
51214;SDS011;63849;47.546;19.254;2024-03-02T08:56:47;33.88;;;27.77;;
51214;SDS011;63849;47.546;19.254;2024-03-02T08:59:16;37.53;;;29.45;;
51214;SDS011;63849;47.546;19.254;2024-03-02T09:01:42;35.33;;;29.45;;
51214;SDS011;63849;47.546;19.254;2024-03-02T09:04:08;36.28;;;28.63;;
51214;SDS011;63849;47.546;19.254;2024-03-02T09:06:34;34.85;;;28.92;;
51214;SDS011;63849;47.546;19.254;2024-03-02T09:09:00;33.80;;;27.58;;
51214;SDS011;63849;47.546;19.254;2024-03-02T09:11:25;31.75;;;26.83;;
51214;SDS011;63849;47.546;19.254;2024-03-02T09:13:51;30.58;;;26.55;;
51214;SDS011;63849;47.546;19.254;2024-03-02T09:16:18;31.33;;;27.70;;
51214;SDS011;63849;47.546;19.254;2024-03-02T09:18:44;31.00;;;26.60;;
51214;SDS011;63849;47.546;19.254;2024-03-02T09:21:10;31.40;;;25.73;;
51214;SDS011;63849;47.546;19.254;2024-03-02T09:23:35;24.70;;;21.95;;
51214;SDS011;63849;47.546;19.254;2024-03-02T09:26:01;25.20;;;21.70;;
51214;SDS011;63849;47.546;19.254;2024-03-02T09:28:28;28.05;;;22.73;;
51214;SDS011;63849;47.546;19.254;2024-03-02T09:30:54;23.92;;;21.38;;
51214;SDS011;63849;47.546;19.254;2024-03-02T09:33:19;23.40;;;20.48;;
51214;SDS011;63849;47.546;19.254;2024-03-02T09:35:45;24.58;;;19.92;;
51214;SDS011;63849;47.546;19.254;2024-03-02T09:38:11;21.77;;;19.35;;
51214;SDS011;63849;47.546;19.254;2024-03-02T09:40:37;22.27;;;19.52;;
51214;SDS011;63849;47.546;19.254;2024-03-02T09:43:02;23.83;;;20.75;;
51214;SDS011;63849;47.546;19.254;2024-03-02T09:45:28;24.10;;;20.83;;
51214;SDS011;63849;47.546;19.254;2024-03-02T09:47:55;38.38;;;26.85;;
51214;SDS011;63849;47.546;19.254;2024-03-02T09:50:21;35.33;;;26.02;;
51214;SDS011;63849;47.546;19.254;2024-03-02T09:52:50;38.75;;;29.17;;
51214;SDS011;63849;47.546;19.254;2024-03-02T09:55:15;35.72;;;27.92;;
51214;SDS011;63849;47.546;19.254;2024-03-02T09:57:43;26.13;;;22.08;;
51214;SDS011;63849;47.546;19.254;2024-03-02T10:00:08;23.98;;;21.38;;
51214;SDS011;63849;47.546;19.254;2024-03-02T10:02:39;23.17;;;19.75;;
51214;SDS011;63849;47.546;19.254;2024-03-02T10:05:11;21.77;;;18.73;;
51214;SDS011;63849;47.546;19.254;2024-03-02T10:07:40;20.75;;;18.42;;
51214;SDS011;63849;47.546;19.254;2024-03-02T10:10:12;20.58;;;18.20;;
51214;SDS011;63849;47.546;19.254;2024-03-02T10:12:39;15.90;;;14.10;;
51214;SDS011;63849;47.546;19.254;2024-03-02T10:15:05;18.73;;;16.35;;
51214;SDS011;63849;47.546;19.254;2024-03-02T10:17:31;19.98;;;17.77;;
51214;SDS011;63849;47.546;19.254;2024-03-02T10:19:57;21.98;;;18.15;;
51214;SDS011;63849;47.546;19.254;2024-03-02T10:22:22;19.98;;;17.88;;
51214;SDS011;63849;47.546;19.254;2024-03-02T10:24:48;18.40;;;16.25;;
51214;SDS011;63849;47.546;19.254;2024-03-02T10:27:17;18.98;;;16.90;;
51214;SDS011;63849;47.546;19.254;2024-03-02T10:29:47;21.38;;;18.05;;
51214;SDS011;63849;47.546;19.254;2024-03-02T10:32:13;20.83;;;18.35;;
51214;SDS011;63849;47.546;19.254;2024-03-02T10:34:40;22.63;;;18.63;;
51214;SDS011;63849;47.546;19.254;2024-03-02T10:37:07;25.98;;;19.90;;
51214;SDS011;63849;47.546;19.254;2024-03-02T10:39:37;23.35;;;19.90;;
51214;SDS011;63849;47.546;19.254;2024-03-02T10:42:04;19.90;;;17.80;;
51214;SDS011;63849;47.546;19.254;2024-03-02T10:44:31;19.70;;;17.60;;
51214;SDS011;63849;47.546;19.254;2024-03-02T10:46:59;19.90;;;17.83;;
51214;SDS011;63849;47.546;19.254;2024-03-02T10:49:27;20.67;;;18.25;;
51214;SDS011;63849;47.546;19.254;2024-03-02T10:51:55;22.60;;;18.80;;
51214;SDS011;63849;47.546;19.254;2024-03-02T10:54:20;23.20;;;19.05;;
51214;SDS011;63849;47.546;19.254;2024-03-02T10:56:51;20.98;;;18.88;;
51214;SDS011;63849;47.546;19.254;2024-03-02T10:59:23;20.70;;;18.58;;
51214;SDS011;63849;47.546;19.254;2024-03-02T11:01:57;20.48;;;17.75;;
51214;SDS011;63849;47.546;19.254;2024-03-02T11:04:25;21.42;;;19.23;;
51214;SDS011;63849;47.546;19.254;2024-03-02T11:06:52;20.45;;;17.88;;
51214;SDS011;63849;47.546;19.254;2024-03-02T11:09:25;21.83;;;19.27;;
51214;SDS011;63849;47.546;19.254;2024-03-02T11:12:16;22.65;;;19.27;;
51214;SDS011;63849;47.546;19.254;2024-03-02T11:14:44;20.30;;;17.90;;
51214;SDS011;63849;47.546;19.254;2024-03-02T11:17:09;20.73;;;18.35;;
51214;SDS011;63849;47.546;19.254;2024-03-02T11:19:39;22.00;;;19.70;;
51214;SDS011;63849;47.546;19.254;2024-03-02T11:22:06;23.50;;;21.00;;
51214;SDS011;63849;47.546;19.254;2024-03-02T11:24:32;21.67;;;19.33;;
51214;SDS011;63849;47.546;19.254;2024-03-02T11:26:58;23.02;;;20.63;;
51214;SDS011;63849;47.546;19.254;2024-03-02T11:32:04;22.27;;;20.00;;
51214;SDS011;63849;47.546;19.254;2024-03-02T11:34:40;22.02;;;19.65;;
51214;SDS011;63849;47.546;19.254;2024-03-02T11:37:10;23.63;;;21.15;;
51214;SDS011;63849;47.546;19.254;2024-03-02T11:39:37;23.42;;;21.10;;
51214;SDS011;63849;47.546;19.254;2024-03-02T11:42:05;24.38;;;21.80;;
51214;SDS011;63849;47.546;19.254;2024-03-02T11:44:33;23.85;;;21.30;;
51214;SDS011;63849;47.546;19.254;2024-03-02T11:47:00;23.70;;;21.30;;
51214;SDS011;63849;47.546;19.254;2024-03-02T11:52:21;23.80;;;21.38;;
51214;SDS011;63849;47.546;19.254;2024-03-02T11:54:48;24.73;;;22.25;;
51214;SDS011;63849;47.546;19.254;2024-03-02T11:57:19;24.77;;;22.17;;
51214;SDS011;63849;47.546;19.254;2024-03-02T11:59:47;25.45;;;22.75;;
51214;SDS011;63849;47.546;19.254;2024-03-02T12:02:18;24.45;;;21.92;;
51214;SDS011;63849;47.546;19.254;2024-03-02T12:04:45;22.52;;;20.10;;
51214;SDS011;63849;47.546;19.254;2024-03-02T12:07:13;22.98;;;20.55;;
51214;SDS011;63849;47.546;19.254;2024-03-02T12:09:48;20.20;;;18.02;;
51214;SDS011;63849;47.546;19.254;2024-03-02T12:12:24;18.90;;;16.77;;
51214;SDS011;63849;47.546;19.254;2024-03-02T12:14:50;18.15;;;16.23;;
51214;SDS011;63849;47.546;19.254;2024-03-02T12:17:17;16.20;;;14.48;;
51214;SDS011;63849;47.546;19.254;2024-03-02T12:19:43;17.52;;;15.73;;
51214;SDS011;63849;47.546;19.254;2024-03-02T12:22:09;20.33;;;16.48;;
51214;SDS011;63849;47.546;19.254;2024-03-02T12:24:34;18.58;;;16.55;;
51214;SDS011;63849;47.546;19.254;2024-03-02T12:27:02;18.60;;;15.85;;
51214;SDS011;63849;47.546;19.254;2024-03-02T12:29:28;17.83;;;15.80;;
51214;SDS011;63849;47.546;19.254;2024-03-02T12:31:54;20.23;;;16.17;;
51214;SDS011;63849;47.546;19.254;2024-03-02T12:34:21;18.23;;;15.07;;
51214;SDS011;63849;47.546;19.254;2024-03-02T12:36:47;17.50;;;14.50;;
51214;SDS011;63849;47.546;19.254;2024-03-02T12:39:17;20.35;;;15.40;;
51214;SDS011;63849;47.546;19.254;2024-03-02T12:41:44;21.23;;;15.90;;
51214;SDS011;63849;47.546;19.254;2024-03-02T12:44:11;23.42;;;18.35;;
51214;SDS011;63849;47.546;19.254;2024-03-02T12:46:36;23.60;;;19.13;;
51214;SDS011;63849;47.546;19.254;2024-03-02T12:49:09;19.67;;;15.80;;
51214;SDS011;63849;47.546;19.254;2024-03-02T12:51:37;20.67;;;16.10;;
51214;SDS011;63849;47.546;19.254;2024-03-02T12:54:05;20.08;;;16.85;;
51214;SDS011;63849;47.546;19.254;2024-03-02T12:56:32;18.27;;;16.30;;
51214;SDS011;63849;47.546;19.254;2024-03-02T12:58:58;19.65;;;16.17;;
51214;SDS011;63849;47.546;19.254;2024-03-02T13:01:24;21.20;;;15.90;;
51214;SDS011;63849;47.546;19.254;2024-03-02T13:03:51;22.00;;;15.52;;
51214;SDS011;63849;47.546;19.254;2024-03-02T13:06:17;20.52;;;15.88;;
51214;SDS011;63849;47.546;19.254;2024-03-02T13:08:44;26.30;;;17.58;;
51214;SDS011;63849;47.546;19.254;2024-03-02T13:11:10;24.10;;;17.27;;
51214;SDS011;63849;47.546;19.254;2024-03-02T13:13:36;27.58;;;18.33;;
51214;SDS011;63849;47.546;19.254;2024-03-02T13:16:04;28.45;;;18.25;;
51214;SDS011;63849;47.546;19.254;2024-03-02T13:18:40;26.02;;;17.80;;
51214;SDS011;63849;47.546;19.254;2024-03-02T13:21:06;25.70;;;17.20;;
51214;SDS011;63849;47.546;19.254;2024-03-02T13:23:32;24.42;;;17.23;;
51214;SDS011;63849;47.546;19.254;2024-03-02T13:25:58;26.13;;;18.33;;
51214;SDS011;63849;47.546;19.254;2024-03-02T13:28:27;23.60;;;16.65;;
51214;SDS011;63849;47.546;19.254;2024-03-02T13:30:53;23.30;;;17.00;;
51214;SDS011;63849;47.546;19.254;2024-03-02T13:33:19;22.73;;;15.68;;
51214;SDS011;63849;47.546;19.254;2024-03-02T13:35:48;21.48;;;16.48;;
51214;SDS011;63849;47.546;19.254;2024-03-02T13:38:16;29.95;;;18.58;;
51214;SDS011;63849;47.546;19.254;2024-03-02T13:40:42;26.23;;;18.52;;
51214;SDS011;63849;47.546;19.254;2024-03-02T13:43:08;27.38;;;19.15;;
51214;SDS011;63849;47.546;19.254;2024-03-02T13:45:34;27.98;;;20.40;;
51214;SDS011;63849;47.546;19.254;2024-03-02T13:48:01;33.33;;;24.38;;
51214;SDS011;63849;47.546;19.254;2024-03-02T13:50:28;31.25;;;21.52;;
51214;SDS011;63849;47.546;19.254;2024-03-02T13:52:55;28.00;;;20.48;;
51214;SDS011;63849;47.546;19.254;2024-03-02T13:55:21;28.88;;;20.33;;
51214;SDS011;63849;47.546;19.254;2024-03-02T13:57:47;25.27;;;19.35;;
51214;SDS011;63849;47.546;19.254;2024-03-02T14:00:15;24.60;;;19.55;;
51214;SDS011;63849;47.546;19.254;2024-03-02T14:02:42;23.58;;;18.38;;
51214;SDS011;63849;47.546;19.254;2024-03-02T14:05:08;26.10;;;19.42;;
51214;SDS011;63849;47.546;19.254;2024-03-02T14:07:37;25.50;;;19.85;;
51214;SDS011;63849;47.546;19.254;2024-03-02T14:10:03;27.35;;;20.13;;
51214;SDS011;63849;47.546;19.254;2024-03-02T14:12:29;28.70;;;20.13;;
51214;SDS011;63849;47.546;19.254;2024-03-02T14:14:55;34.10;;;22.13;;